sensor_id;sensor_type;location;lat;lon;timestamp;P1;durP1;ratioP1;P2;durP2;ratioP2
12884;SDS011;6510;51.362;7.370;2023-06-22T00:01:58;0.17;;;0.17;;
12884;SDS011;6510;51.362;7.370;2023-06-22T00:04:24;0.10;;;0.10;;
12884;SDS011;6510;51.362;7.370;2023-06-22T00:06:50;0.20;;;0.20;;
12884;SDS011;6510;51.362;7.370;2023-06-22T00:09:16;0.20;;;0.20;;
12884;SDS011;6510;51.362;7.370;2023-06-22T00:11:41;0.20;;;0.20;;
12884;SDS011;6510;51.362;7.370;2023-06-22T00:14:07;0.20;;;0.20;;
12884;SDS011;6510;51.362;7.370;2023-06-22T00:16:32;0.10;;;0.10;;
12884;SDS011;6510;51.362;7.370;2023-06-22T00:19:00;0.20;;;0.20;;
12884;SDS011;6510;51.362;7.370;2023-06-22T00:21:26;0.17;;;0.17;;
12884;SDS011;6510;51.362;7.370;2023-06-22T00:23:52;0.10;;;0.10;;
12884;SDS011;6510;51.362;7.370;2023-06-22T00:26:18;0.10;;;0.10;;
12884;SDS011;6510;51.362;7.370;2023-06-22T00:28:44;0.10;;;0.10;;
12884;SDS011;6510;51.362;7.370;2023-06-22T00:31:09;0.15;;;0.15;;
12884;SDS011;6510;51.362;7.370;2023-06-22T00:33:35;0.10;;;0.10;;
12884;SDS011;6510;51.362;7.370;2023-06-22T00:36:01;0.20;;;0.20;;
12884;SDS011;6510;51.362;7.370;2023-06-22T00:38:28;0.10;;;0.10;;
12884;SDS011;6510;51.362;7.370;2023-06-22T00:40:53;0.10;;;0.10;;
12884;SDS011;6510;51.362;7.370;2023-06-22T00:43:19;0.10;;;0.10;;
12884;SDS011;6510;51.362;7.370;2023-06-22T00:45:45;0.10;;;0.10;;
12884;SDS011;6510;51.362;7.370;2023-06-22T00:48:11;0.10;;;0.10;;
12884;SDS011;6510;51.362;7.370;2023-06-22T00:50:37;0.08;;;0.08;;
12884;SDS011;6510;51.362;7.370;2023-06-22T00:53:05;0.10;;;0.10;;
12884;SDS011;6510;51.362;7.370;2023-06-22T00:55:38;0.10;;;0.10;;
12884;SDS011;6510;51.362;7.370;2023-06-22T00:58:08;0.10;;;0.10;;
12884;SDS011;6510;51.362;7.370;2023-06-22T01:00:35;0.10;;;0.10;;
12884;SDS011;6510;51.362;7.370;2023-06-22T01:03:02;0.10;;;0.10;;
12884;SDS011;6510;51.362;7.370;2023-06-22T01:05:28;0.10;;;0.10;;
12884;SDS011;6510;51.362;7.370;2023-06-22T01:10:57;0.10;;;0.10;;
12884;SDS011;6510;51.362;7.370;2023-06-22T01:16:29;0.20;;;0.20;;
12884;SDS011;6510;51.362;7.370;2023-06-22T01:18:57;0.10;;;0.10;;
12884;SDS011;6510;51.362;7.370;2023-06-22T01:21:28;0.05;;;0.05;;
12884;SDS011;6510;51.362;7.370;2023-06-22T01:27:00;0.08;;;0.08;;
12884;SDS011;6510;51.362;7.370;2023-06-22T01:29:34;0.10;;;0.10;;
12884;SDS011;6510;51.362;7.370;2023-06-22T01:32:01;0.10;;;0.10;;
12884;SDS011;6510;51.362;7.370;2023-06-22T01:34:30;0.10;;;0.10;;
12884;SDS011;6510;51.362;7.370;2023-06-22T01:36:57;0.10;;;0.10;;
12884;SDS011;6510;51.362;7.370;2023-06-22T01:39:24;0.10;;;0.10;;
12884;SDS011;6510;51.362;7.370;2023-06-22T01:41:51;0.10;;;0.10;;
12884;SDS011;6510;51.362;7.370;2023-06-22T01:44:18;0.10;;;0.10;;
12884;SDS011;6510;51.362;7.370;2023-06-22T01:46:44;0.10;;;0.10;;
12884;SDS011;6510;51.362;7.370;2023-06-22T01:49:11;0.10;;;0.10;;
12884;SDS011;6510;51.362;7.370;2023-06-22T01:51:37;0.20;;;0.20;;
12884;SDS011;6510;51.362;7.370;2023-06-22T01:54:03;0.10;;;0.10;;
12884;SDS011;6510;51.362;7.370;2023-06-22T01:56:30;0.10;;;0.10;;
12884;SDS011;6510;51.362;7.370;2023-06-22T01:59:17;0.10;;;0.10;;
12884;SDS011;6510;51.362;7.370;2023-06-22T02:01:57;0.10;;;0.10;;
12884;SDS011;6510;51.362;7.370;2023-06-22T02:04:27;0.15;;;0.15;;
12884;SDS011;6510;51.362;7.370;2023-06-22T02:06:58;0.10;;;0.10;;
12884;SDS011;6510;51.362;7.370;2023-06-22T02:09:25;0.10;;;0.10;;
12884;SDS011;6510;51.362;7.370;2023-06-22T02:11:55;0.08;;;0.08;;
12884;SDS011;6510;51.362;7.370;2023-06-22T02:14:22;0.10;;;0.10;;
12884;SDS011;6510;51.362;7.370;2023-06-22T02:16:49;0.10;;;0.10;;
12884;SDS011;6510;51.362;7.370;2023-06-22T02:19:16;0.10;;;0.10;;
12884;SDS011;6510;51.362;7.370;2023-06-22T02:21:43;0.10;;;0.10;;
12884;SDS011;6510;51.362;7.370;2023-06-22T02:24:10;0.10;;;0.10;;
12884;SDS011;6510;51.362;7.370;2023-06-22T02:26:35;0.10;;;0.10;;
12884;SDS011;6510;51.362;7.370;2023-06-22T02:29:03;0.13;;;0.13;;
12884;SDS011;6510;51.362;7.370;2023-06-22T02:31:29;0.10;;;0.10;;
12884;SDS011;6510;51.362;7.370;2023-06-22T02:33:56;0.10;;;0.10;;
12884;SDS011;6510;51.362;7.370;2023-06-22T02:36:23;0.10;;;0.10;;
12884;SDS011;6510;51.362;7.370;2023-06-22T02:38:50;0.10;;;0.10;;
12884;SDS011;6510;51.362;7.370;2023-06-22T02:41:16;0.10;;;0.10;;
12884;SDS011;6510;51.362;7.370;2023-06-22T02:43:45;0.10;;;0.10;;
12884;SDS011;6510;51.362;7.370;2023-06-22T02:46:11;0.10;;;0.10;;
12884;SDS011;6510;51.362;7.370;2023-06-22T02:48:38;0.10;;;0.10;;
12884;SDS011;6510;51.362;7.370;2023-06-22T02:51:04;0.10;;;0.10;;
12884;SDS011;6510;51.362;7.370;2023-06-22T02:53:29;0.10;;;0.10;;
12884;SDS011;6510;51.362;7.370;2023-06-22T02:55:55;0.10;;;0.10;;
12884;SDS011;6510;51.362;7.370;2023-06-22T02:58:26;0.10;;;0.10;;
12884;SDS011;6510;51.362;7.370;2023-06-22T03:00:52;0.10;;;0.10;;
12884;SDS011;6510;51.362;7.370;2023-06-22T03:03:18;0.20;;;0.20;;
12884;SDS011;6510;51.362;7.370;2023-06-22T03:05:44;0.00;;;0.00;;
12884;SDS011;6510;51.362;7.370;2023-06-22T03:08:10;0.00;;;0.00;;
12884;SDS011;6510;51.362;7.370;2023-06-22T03:10:35;0.10;;;0.10;;
12884;SDS011;6510;51.362;7.370;2023-06-22T03:13:01;0.10;;;0.10;;
12884;SDS011;6510;51.362;7.370;2023-06-22T03:15:27;0.10;;;0.10;;
12884;SDS011;6510;51.362;7.370;2023-06-22T03:17:54;0.10;;;0.10;;
12884;SDS011;6510;51.362;7.370;2023-06-22T03:20:20;0.10;;;0.10;;
12884;SDS011;6510;51.362;7.370;2023-06-22T03:22:46;0.13;;;0.13;;
12884;SDS011;6510;51.362;7.370;2023-06-22T03:25:13;0.10;;;0.10;;
12884;SDS011;6510;51.362;7.370;2023-06-22T03:27:39;0.10;;;0.10;;
12884;SDS011;6510;51.362;7.370;2023-06-22T03:30:06;0.10;;;0.10;;
12884;SDS011;6510;51.362;7.370;2023-06-22T03:32:33;0.03;;;0.03;;
12884;SDS011;6510;51.362;7.370;2023-06-22T03:34:59;0.10;;;0.10;;
12884;SDS011;6510;51.362;7.370;2023-06-22T03:37:25;0.10;;;0.10;;
12884;SDS011;6510;51.362;7.370;2023-06-22T03:39:51;0.10;;;0.10;;
12884;SDS011;6510;51.362;7.370;2023-06-22T03:42:17;0.10;;;0.10;;
12884;SDS011;6510;51.362;7.370;2023-06-22T03:44:43;0.20;;;0.20;;
12884;SDS011;6510;51.362;7.370;2023-06-22T03:47:09;0.10;;;0.10;;
12884;SDS011;6510;51.362;7.370;2023-06-22T03:49:34;0.20;;;0.20;;
12884;SDS011;6510;51.362;7.370;2023-06-22T03:52:01;0.10;;;0.10;;
12884;SDS011;6510;51.362;7.370;2023-06-22T03:54:28;0.10;;;0.10;;
12884;SDS011;6510;51.362;7.370;2023-06-22T03:56:54;0.10;;;0.10;;
12884;SDS011;6510;51.362;7.370;2023-06-22T03:59:21;0.10;;;0.10;;
12884;SDS011;6510;51.362;7.370;2023-06-22T04:01:47;0.13;;;0.13;;
12884;SDS011;6510;51.362;7.370;2023-06-22T04:04:12;0.10;;;0.10;;
12884;SDS011;6510;51.362;7.370;2023-06-22T04:06:38;0.10;;;0.10;;
12884;SDS011;6510;51.362;7.370;2023-06-22T04:09:05;0.10;;;0.10;;
12884;SDS011;6510;51.362;7.370;2023-06-22T04:11:31;0.10;;;0.10;;
12884;SDS011;6510;51.362;7.370;2023-06-22T04:13:57;0.10;;;0.10;;
12884;SDS011;6510;51.362;7.370;2023-06-22T04:16:22;0.10;;;0.10;;
12884;SDS011;6510;51.362;7.370;2023-06-22T04:18:48;0.10;;;0.10;;
12884;SDS011;6510;51.362;7.370;2023-06-22T04:21:13;0.10;;;0.10;;
12884;SDS011;6510;51.362;7.370;2023-06-22T04:23:39;0.00;;;0.00;;
12884;SDS011;6510;51.362;7.370;2023-06-22T04:26:05;0.13;;;0.13;;
12884;SDS011;6510;51.362;7.370;2023-06-22T04:28:30;0.10;;;0.10;;
12884;SDS011;6510;51.362;7.370;2023-06-22T04:31:00;0.00;;;0.00;;
12884;SDS011;6510;51.362;7.370;2023-06-22T04:33:28;0.10;;;0.10;;
12884;SDS011;6510;51.362;7.370;2023-06-22T04:35:54;0.10;;;0.10;;
12884;SDS011;6510;51.362;7.370;2023-06-22T04:38:22;0.10;;;0.10;;
12884;SDS011;6510;51.362;7.370;2023-06-22T04:40:48;0.10;;;0.10;;
12884;SDS011;6510;51.362;7.370;2023-06-22T04:43:14;0.10;;;0.10;;
12884;SDS011;6510;51.362;7.370;2023-06-22T04:45:40;0.10;;;0.10;;
12884;SDS011;6510;51.362;7.370;2023-06-22T04:48:05;0.05;;;0.05;;
12884;SDS011;6510;51.362;7.370;2023-06-22T04:50:31;0.10;;;0.10;;
12884;SDS011;6510;51.362;7.370;2023-06-22T04:52:57;0.10;;;0.10;;
12884;SDS011;6510;51.362;7.370;2023-06-22T04:55:23;0.03;;;0.03;;
12884;SDS011;6510;51.362;7.370;2023-06-22T04:57:50;0.10;;;0.10;;
12884;SDS011;6510;51.362;7.370;2023-06-22T05:00:17;0.10;;;0.10;;
12884;SDS011;6510;51.362;7.370;2023-06-22T05:02:44;0.10;;;0.10;;
12884;SDS011;6510;51.362;7.370;2023-06-22T05:05:11;0.10;;;0.10;;
12884;SDS011;6510;51.362;7.370;2023-06-22T05:07:44;0.10;;;0.10;;
12884;SDS011;6510;51.362;7.370;2023-06-22T05:10:13;0.10;;;0.10;;
12884;SDS011;6510;51.362;7.370;2023-06-22T05:12:39;0.10;;;0.10;;
12884;SDS011;6510;51.362;7.370;2023-06-22T05:15:06;0.10;;;0.10;;
12884;SDS011;6510;51.362;7.370;2023-06-22T05:17:33;0.10;;;0.10;;
12884;SDS011;6510;51.362;7.370;2023-06-22T05:19:59;0.10;;;0.10;;
12884;SDS011;6510;51.362;7.370;2023-06-22T05:22:24;0.10;;;0.10;;
12884;SDS011;6510;51.362;7.370;2023-06-22T05:24:50;0.00;;;0.00;;
12884;SDS011;6510;51.362;7.370;2023-06-22T05:27:15;0.10;;;0.10;;
12884;SDS011;6510;51.362;7.370;2023-06-22T05:29:41;0.10;;;0.10;;
12884;SDS011;6510;51.362;7.370;2023-06-22T05:32:07;0.10;;;0.10;;
12884;SDS011;6510;51.362;7.370;2023-06-22T05:34:33;0.10;;;0.10;;
12884;SDS011;6510;51.362;7.370;2023-06-22T05:36:59;0.10;;;0.10;;
12884;SDS011;6510;51.362;7.370;2023-06-22T05:39:24;0.10;;;0.10;;
12884;SDS011;6510;51.362;7.370;2023-06-22T05:41:51;0.10;;;0.10;;
12884;SDS011;6510;51.362;7.370;2023-06-22T05:44:17;0.15;;;0.15;;
12884;SDS011;6510;51.362;7.370;2023-06-22T05:46:43;0.10;;;0.10;;
12884;SDS011;6510;51.362;7.370;2023-06-22T05:49:14;0.17;;;0.17;;
12884;SDS011;6510;51.362;7.370;2023-06-22T05:51:40;0.10;;;0.10;;
12884;SDS011;6510;51.362;7.370;2023-06-22T05:54:06;0.10;;;0.10;;
12884;SDS011;6510;51.362;7.370;2023-06-22T05:56:33;0.10;;;0.10;;
12884;SDS011;6510;51.362;7.370;2023-06-22T05:58:59;0.10;;;0.10;;
12884;SDS011;6510;51.362;7.370;2023-06-22T06:01:25;0.10;;;0.10;;
12884;SDS011;6510;51.362;7.370;2023-06-22T06:03:51;0.10;;;0.10;;
12884;SDS011;6510;51.362;7.370;2023-06-22T06:06:17;0.10;;;0.10;;
12884;SDS011;6510;51.362;7.370;2023-06-22T06:08:45;0.03;;;0.03;;
12884;SDS011;6510;51.362;7.370;2023-06-22T06:11:10;0.10;;;0.10;;
12884;SDS011;6510;51.362;7.370;2023-06-22T06:13:36;0.10;;;0.10;;
12884;SDS011;6510;51.362;7.370;2023-06-22T06:16:02;0.10;;;0.10;;
12884;SDS011;6510;51.362;7.370;2023-06-22T06:18:27;0.20;;;0.20;;
12884;SDS011;6510;51.362;7.370;2023-06-22T06:20:53;0.10;;;0.10;;
12884;SDS011;6510;51.362;7.370;2023-06-22T06:23:18;0.10;;;0.10;;
12884;SDS011;6510;51.362;7.370;2023-06-22T06:25:44;0.10;;;0.10;;
12884;SDS011;6510;51.362;7.370;2023-06-22T06:28:10;0.10;;;0.10;;
12884;SDS011;6510;51.362;7.370;2023-06-22T06:30:35;0.13;;;0.13;;
12884;SDS011;6510;51.362;7.370;2023-06-22T06:33:02;0.20;;;0.20;;
12884;SDS011;6510;51.362;7.370;2023-06-22T06:35:36;0.20;;;0.20;;
12884;SDS011;6510;51.362;7.370;2023-06-22T06:38:02;0.10;;;0.10;;
12884;SDS011;6510;51.362;7.370;2023-06-22T06:40:28;0.10;;;0.10;;
12884;SDS011;6510;51.362;7.370;2023-06-22T06:42:54;0.20;;;0.20;;
12884;SDS011;6510;51.362;7.370;2023-06-22T06:45:20;0.20;;;0.20;;
12884;SDS011;6510;51.362;7.370;2023-06-22T06:47:48;0.20;;;0.20;;
12884;SDS011;6510;51.362;7.370;2023-06-22T06:50:14;0.25;;;0.25;;
12884;SDS011;6510;51.362;7.370;2023-06-22T06:52:40;0.10;;;0.10;;
12884;SDS011;6510;51.362;7.370;2023-06-22T06:55:06;0.20;;;0.20;;
12884;SDS011;6510;51.362;7.370;2023-06-22T06:57:34;0.20;;;0.20;;
12884;SDS011;6510;51.362;7.370;2023-06-22T06:59:59;0.15;;;0.15;;
12884;SDS011;6510;51.362;7.370;2023-06-22T07:02:25;0.10;;;0.10;;
12884;SDS011;6510;51.362;7.370;2023-06-22T07:04:54;0.20;;;0.20;;
12884;SDS011;6510;51.362;7.370;2023-06-22T07:07:22;0.20;;;0.20;;
12884;SDS011;6510;51.362;7.370;2023-06-22T07:09:49;0.10;;;0.10;;
12884;SDS011;6510;51.362;7.370;2023-06-22T07:12:14;0.20;;;0.20;;
12884;SDS011;6510;51.362;7.370;2023-06-22T07:14:40;0.20;;;0.20;;
12884;SDS011;6510;51.362;7.370;2023-06-22T07:17:06;0.13;;;0.13;;
12884;SDS011;6510;51.362;7.370;2023-06-22T07:19:32;0.20;;;0.20;;
12884;SDS011;6510;51.362;7.370;2023-06-22T07:21:58;0.10;;;0.10;;
12884;SDS011;6510;51.362;7.370;2023-06-22T07:24:24;0.10;;;0.10;;
12884;SDS011;6510;51.362;7.370;2023-06-22T07:26:49;0.10;;;0.10;;
12884;SDS011;6510;51.362;7.370;2023-06-22T07:29:19;0.10;;;0.10;;
12884;SDS011;6510;51.362;7.370;2023-06-22T07:31:46;0.10;;;0.10;;
12884;SDS011;6510;51.362;7.370;2023-06-22T07:34:12;0.10;;;0.10;;
12884;SDS011;6510;51.362;7.370;2023-06-22T07:36:38;0.10;;;0.10;;
12884;SDS011;6510;51.362;7.370;2023-06-22T07:39:04;0.20;;;0.20;;
12884;SDS011;6510;51.362;7.370;2023-06-22T07:41:30;0.13;;;0.13;;
12884;SDS011;6510;51.362;7.370;2023-06-22T07:43:56;0.10;;;0.10;;
12884;SDS011;6510;51.362;7.370;2023-06-22T07:46:22;0.10;;;0.10;;
12884;SDS011;6510;51.362;7.370;2023-06-22T07:48:48;0.20;;;0.20;;
12884;SDS011;6510;51.362;7.370;2023-06-22T07:51:14;0.15;;;0.15;;
12884;SDS011;6510;51.362;7.370;2023-06-22T07:53:40;0.10;;;0.10;;
12884;SDS011;6510;51.362;7.370;2023-06-22T07:56:06;0.20;;;0.20;;
12884;SDS011;6510;51.362;7.370;2023-06-22T07:58:34;0.15;;;0.15;;
12884;SDS011;6510;51.362;7.370;2023-06-22T08:01:01;0.15;;;0.15;;
12884;SDS011;6510;51.362;7.370;2023-06-22T08:03:28;0.10;;;0.10;;
12884;SDS011;6510;51.362;7.370;2023-06-22T08:05:53;0.20;;;0.20;;
12884;SDS011;6510;51.362;7.370;2023-06-22T08:08:19;0.20;;;0.20;;
12884;SDS011;6510;51.362;7.370;2023-06-22T08:10:45;0.20;;;0.20;;
12884;SDS011;6510;51.362;7.370;2023-06-22T08:13:10;0.20;;;0.20;;
12884;SDS011;6510;51.362;7.370;2023-06-22T08:15:36;0.10;;;0.10;;
12884;SDS011;6510;51.362;7.370;2023-06-22T08:18:02;0.30;;;0.30;;
12884;SDS011;6510;51.362;7.370;2023-06-22T08:20:27;0.20;;;0.20;;
12884;SDS011;6510;51.362;7.370;2023-06-22T08:22:53;0.30;;;0.30;;
12884;SDS011;6510;51.362;7.370;2023-06-22T08:25:20;0.30;;;0.30;;
12884;SDS011;6510;51.362;7.370;2023-06-22T08:27:46;0.30;;;0.30;;
12884;SDS011;6510;51.362;7.370;2023-06-22T08:30:15;0.40;;;0.40;;
12884;SDS011;6510;51.362;7.370;2023-06-22T08:32:44;0.40;;;0.40;;
12884;SDS011;6510;51.362;7.370;2023-06-22T08:35:09;0.40;;;0.40;;
12884;SDS011;6510;51.362;7.370;2023-06-22T08:37:36;0.50;;;0.50;;
12884;SDS011;6510;51.362;7.370;2023-06-22T08:40:04;0.50;;;0.50;;
12884;SDS011;6510;51.362;7.370;2023-06-22T08:42:33;0.40;;;0.40;;
12884;SDS011;6510;51.362;7.370;2023-06-22T08:44:59;0.70;;;0.70;;
12884;SDS011;6510;51.362;7.370;2023-06-22T08:47:24;0.52;;;0.52;;
12884;SDS011;6510;51.362;7.370;2023-06-22T08:49:52;0.82;;;0.82;;
12884;SDS011;6510;51.362;7.370;2023-06-22T08:52:18;0.90;;;0.90;;
12884;SDS011;6510;51.362;7.370;2023-06-22T08:54:45;0.73;;;0.73;;
12884;SDS011;6510;51.362;7.370;2023-06-22T08:57:11;0.80;;;0.80;;
12884;SDS011;6510;51.362;7.370;2023-06-22T08:59:36;0.73;;;0.73;;
12884;SDS011;6510;51.362;7.370;2023-06-22T09:02:02;0.60;;;0.60;;
12884;SDS011;6510;51.362;7.370;2023-06-22T09:04:30;0.65;;;0.65;;
12884;SDS011;6510;51.362;7.370;2023-06-22T09:06:59;0.73;;;0.73;;
12884;SDS011;6510;51.362;7.370;2023-06-22T09:09:26;0.90;;;0.90;;
12884;SDS011;6510;51.362;7.370;2023-06-22T09:11:52;0.98;;;0.98;;
12884;SDS011;6510;51.362;7.370;2023-06-22T09:14:17;0.88;;;0.88;;
12884;SDS011;6510;51.362;7.370;2023-06-22T09:16:43;0.85;;;0.85;;
12884;SDS011;6510;51.362;7.370;2023-06-22T09:19:09;0.90;;;0.90;;
12884;SDS011;6510;51.362;7.370;2023-06-22T09:21:35;0.98;;;0.98;;
12884;SDS011;6510;51.362;7.370;2023-06-22T09:24:01;1.00;;;1.00;;
12884;SDS011;6510;51.362;7.370;2023-06-22T09:26:27;1.10;;;1.10;;
12884;SDS011;6510;51.362;7.370;2023-06-22T09:28:52;0.90;;;0.90;;
12884;SDS011;6510;51.362;7.370;2023-06-22T09:31:18;0.82;;;0.82;;
12884;SDS011;6510;51.362;7.370;2023-06-22T09:33:50;0.80;;;0.80;;
12884;SDS011;6510;51.362;7.370;2023-06-22T09:36:19;0.90;;;0.90;;
12884;SDS011;6510;51.362;7.370;2023-06-22T09:38:48;0.75;;;0.75;;
12884;SDS011;6510;51.362;7.370;2023-06-22T09:41:14;1.00;;;1.00;;
12884;SDS011;6510;51.362;7.370;2023-06-22T09:43:41;0.80;;;0.80;;
12884;SDS011;6510;51.362;7.370;2023-06-22T09:46:06;0.75;;;0.75;;
12884;SDS011;6510;51.362;7.370;2023-06-22T09:48:32;0.70;;;0.70;;
12884;SDS011;6510;51.362;7.370;2023-06-22T09:50:57;0.70;;;0.70;;
12884;SDS011;6510;51.362;7.370;2023-06-22T09:53:23;0.60;;;0.60;;
12884;SDS011;6510;51.362;7.370;2023-06-22T09:55:49;0.60;;;0.60;;
12884;SDS011;6510;51.362;7.370;2023-06-22T09:58:14;0.65;;;0.65;;
12884;SDS011;6510;51.362;7.370;2023-06-22T10:00:40;0.60;;;0.60;;
12884;SDS011;6510;51.362;7.370;2023-06-22T10:03:06;0.88;;;0.88;;
12884;SDS011;6510;51.362;7.370;2023-06-22T10:05:32;0.60;;;0.60;;
12884;SDS011;6510;51.362;7.370;2023-06-22T10:07:58;0.73;;;0.73;;
12884;SDS011;6510;51.362;7.370;2023-06-22T10:10:24;0.55;;;0.55;;
12884;SDS011;6510;51.362;7.370;2023-06-22T10:12:56;0.60;;;0.60;;
12884;SDS011;6510;51.362;7.370;2023-06-22T10:15:23;0.63;;;0.63;;
12884;SDS011;6510;51.362;7.370;2023-06-22T10:17:49;0.40;;;0.40;;
12884;SDS011;6510;51.362;7.370;2023-06-22T10:20:15;0.70;;;0.70;;
12884;SDS011;6510;51.362;7.370;2023-06-22T10:22:43;0.52;;;0.52;;
12884;SDS011;6510;51.362;7.370;2023-06-22T10:25:11;0.77;;;0.77;;
12884;SDS011;6510;51.362;7.370;2023-06-22T10:27:37;0.75;;;0.75;;
12884;SDS011;6510;51.362;7.370;2023-06-22T10:30:06;0.80;;;0.80;;
12884;SDS011;6510;51.362;7.370;2023-06-22T10:32:37;0.50;;;0.50;;
12884;SDS011;6510;51.362;7.370;2023-06-22T10:35:03;0.50;;;0.50;;
12884;SDS011;6510;51.362;7.370;2023-06-22T10:37:30;0.50;;;0.50;;
12884;SDS011;6510;51.362;7.370;2023-06-22T10:39:55;0.50;;;0.50;;
12884;SDS011;6510;51.362;7.370;2023-06-22T10:42:21;0.50;;;0.50;;
12884;SDS011;6510;51.362;7.370;2023-06-22T10:44:47;0.50;;;0.50;;
12884;SDS011;6510;51.362;7.370;2023-06-22T10:47:12;0.40;;;0.40;;
12884;SDS011;6510;51.362;7.370;2023-06-22T10:49:38;0.40;;;0.40;;
12884;SDS011;6510;51.362;7.370;2023-06-22T10:52:05;0.50;;;0.50;;
12884;SDS011;6510;51.362;7.370;2023-06-22T10:54:32;0.30;;;0.30;;
12884;SDS011;6510;51.362;7.370;2023-06-22T10:56:59;0.20;;;0.20;;
12884;SDS011;6510;51.362;7.370;2023-06-22T10:59:24;0.20;;;0.20;;
12884;SDS011;6510;51.362;7.370;2023-06-22T11:01:51;0.22;;;0.22;;
12884;SDS011;6510;51.362;7.370;2023-06-22T11:04:17;0.20;;;0.20;;
12884;SDS011;6510;51.362;7.370;2023-06-22T11:06:43;0.30;;;0.30;;
12884;SDS011;6510;51.362;7.370;2023-06-22T11:09:08;0.30;;;0.30;;
12884;SDS011;6510;51.362;7.370;2023-06-22T11:11:34;0.20;;;0.20;;
12884;SDS011;6510;51.362;7.370;2023-06-22T11:14:00;0.20;;;0.20;;
12884;SDS011;6510;51.362;7.370;2023-06-22T11:16:25;0.20;;;0.20;;
12884;SDS011;6510;51.362;7.370;2023-06-22T11:18:52;0.15;;;0.15;;
12884;SDS011;6510;51.362;7.370;2023-06-22T11:21:17;0.20;;;0.20;;
12884;SDS011;6510;51.362;7.370;2023-06-22T11:23:43;0.20;;;0.20;;
12884;SDS011;6510;51.362;7.370;2023-06-22T11:26:09;0.20;;;0.20;;
12884;SDS011;6510;51.362;7.370;2023-06-22T11:28:34;0.10;;;0.10;;
12884;SDS011;6510;51.362;7.370;2023-06-22T11:31:00;0.20;;;0.20;;
12884;SDS011;6510;51.362;7.370;2023-06-22T11:33:25;0.10;;;0.10;;
12884;SDS011;6510;51.362;7.370;2023-06-22T11:35:51;0.20;;;0.20;;
12884;SDS011;6510;51.362;7.370;2023-06-22T11:38:16;0.20;;;0.20;;
12884;SDS011;6510;51.362;7.370;2023-06-22T11:40:42;0.10;;;0.10;;
12884;SDS011;6510;51.362;7.370;2023-06-22T11:43:08;0.10;;;0.10;;
12884;SDS011;6510;51.362;7.370;2023-06-22T11:45:33;0.20;;;0.20;;
12884;SDS011;6510;51.362;7.370;2023-06-22T11:47:59;0.10;;;0.10;;
12884;SDS011;6510;51.362;7.370;2023-06-22T11:50:24;0.10;;;0.10;;
12884;SDS011;6510;51.362;7.370;2023-06-22T11:52:50;0.10;;;0.10;;
12884;SDS011;6510;51.362;7.370;2023-06-22T11:55:17;0.10;;;0.10;;
12884;SDS011;6510;51.362;7.370;2023-06-22T11:57:56;0.20;;;0.20;;
12884;SDS011;6510;51.362;7.370;2023-06-22T12:00:28;0.10;;;0.10;;
12884;SDS011;6510;51.362;7.370;2023-06-22T12:02:54;0.10;;;0.10;;
12884;SDS011;6510;51.362;7.370;2023-06-22T12:05:21;0.10;;;0.10;;
12884;SDS011;6510;51.362;7.370;2023-06-22T12:07:47;0.20;;;0.20;;
12884;SDS011;6510;51.362;7.370;2023-06-22T12:10:13;0.10;;;0.10;;
12884;SDS011;6510;51.362;7.370;2023-06-22T12:12:39;0.10;;;0.10;;
12884;SDS011;6510;51.362;7.370;2023-06-22T12:15:05;0.10;;;0.10;;
12884;SDS011;6510;51.362;7.370;2023-06-22T12:17:32;0.10;;;0.10;;
12884;SDS011;6510;51.362;7.370;2023-06-22T12:19:58;0.10;;;0.10;;
12884;SDS011;6510;51.362;7.370;2023-06-22T12:22:24;0.20;;;0.20;;
12884;SDS011;6510;51.362;7.370;2023-06-22T12:24:50;0.20;;;0.20;;
12884;SDS011;6510;51.362;7.370;2023-06-22T12:27:16;0.10;;;0.10;;
12884;SDS011;6510;51.362;7.370;2023-06-22T12:29:45;0.08;;;0.08;;
12884;SDS011;6510;51.362;7.370;2023-06-22T12:32:11;0.10;;;0.10;;
12884;SDS011;6510;51.362;7.370;2023-06-22T12:34:42;0.20;;;0.20;;
12884;SDS011;6510;51.362;7.370;2023-06-22T12:37:08;0.10;;;0.10;;
12884;SDS011;6510;51.362;7.370;2023-06-22T12:39:33;0.10;;;0.10;;
12884;SDS011;6510;51.362;7.370;2023-06-22T12:41:59;0.10;;;0.10;;
12884;SDS011;6510;51.362;7.370;2023-06-22T12:44:25;0.10;;;0.10;;
12884;SDS011;6510;51.362;7.370;2023-06-22T12:46:51;0.10;;;0.10;;
12884;SDS011;6510;51.362;7.370;2023-06-22T12:49:16;0.10;;;0.10;;
12884;SDS011;6510;51.362;7.370;2023-06-22T12:51:42;0.05;;;0.05;;
12884;SDS011;6510;51.362;7.370;2023-06-22T12:54:08;0.20;;;0.20;;
12884;SDS011;6510;51.362;7.370;2023-06-22T12:56:35;0.10;;;0.10;;
12884;SDS011;6510;51.362;7.370;2023-06-22T12:59:00;0.10;;;0.10;;
12884;SDS011;6510;51.362;7.370;2023-06-22T13:01:35;0.20;;;0.20;;
12884;SDS011;6510;51.362;7.370;2023-06-22T13:04:02;0.20;;;0.20;;
12884;SDS011;6510;51.362;7.370;2023-06-22T13:06:28;0.20;;;0.20;;
12884;SDS011;6510;51.362;7.370;2023-06-22T13:08:54;0.20;;;0.20;;
12884;SDS011;6510;51.362;7.370;2023-06-22T13:11:19;0.10;;;0.10;;
12884;SDS011;6510;51.362;7.370;2023-06-22T13:13:45;0.10;;;0.10;;
12884;SDS011;6510;51.362;7.370;2023-06-22T13:16:11;0.10;;;0.10;;
12884;SDS011;6510;51.362;7.370;2023-06-22T13:18:39;0.10;;;0.10;;
12884;SDS011;6510;51.362;7.370;2023-06-22T13:21:05;0.20;;;0.20;;
12884;SDS011;6510;51.362;7.370;2023-06-22T13:23:30;0.15;;;0.15;;
12884;SDS011;6510;51.362;7.370;2023-06-22T13:25:57;0.10;;;0.10;;
12884;SDS011;6510;51.362;7.370;2023-06-22T13:28:23;0.20;;;0.20;;
12884;SDS011;6510;51.362;7.370;2023-06-22T13:30:48;0.20;;;0.20;;
12884;SDS011;6510;51.362;7.370;2023-06-22T13:33:14;0.20;;;0.20;;
12884;SDS011;6510;51.362;7.370;2023-06-22T13:35:40;0.30;;;0.30;;
12884;SDS011;6510;51.362;7.370;2023-06-22T13:38:07;0.20;;;0.20;;
12884;SDS011;6510;51.362;7.370;2023-06-22T13:40:37;0.20;;;0.20;;
12884;SDS011;6510;51.362;7.370;2023-06-22T13:43:03;0.20;;;0.20;;
12884;SDS011;6510;51.362;7.370;2023-06-22T13:45:29;0.20;;;0.20;;
12884;SDS011;6510;51.362;7.370;2023-06-22T13:47:55;0.20;;;0.20;;
12884;SDS011;6510;51.362;7.370;2023-06-22T13:50:20;0.20;;;0.20;;
12884;SDS011;6510;51.362;7.370;2023-06-22T13:52:46;0.20;;;0.20;;
12884;SDS011;6510;51.362;7.370;2023-06-22T13:55:11;0.20;;;0.20;;
12884;SDS011;6510;51.362;7.370;2023-06-22T13:57:39;0.20;;;0.20;;
12884;SDS011;6510;51.362;7.370;2023-06-22T14:00:06;0.20;;;0.20;;
12884;SDS011;6510;51.362;7.370;2023-06-22T14:02:33;0.20;;;0.20;;
12884;SDS011;6510;51.362;7.370;2023-06-22T14:04:59;0.20;;;0.20;;
12884;SDS011;6510;51.362;7.370;2023-06-22T14:07:25;0.20;;;0.20;;
12884;SDS011;6510;51.362;7.370;2023-06-22T14:09:50;0.20;;;0.20;;
12884;SDS011;6510;51.362;7.370;2023-06-22T14:12:16;0.22;;;0.22;;
12884;SDS011;6510;51.362;7.370;2023-06-22T14:14:43;0.20;;;0.20;;
12884;SDS011;6510;51.362;7.370;2023-06-22T14:17:09;0.20;;;0.20;;
12884;SDS011;6510;51.362;7.370;2023-06-22T14:19:35;0.30;;;0.30;;
12884;SDS011;6510;51.362;7.370;2023-06-22T14:22:01;0.20;;;0.20;;
12884;SDS011;6510;51.362;7.370;2023-06-22T14:24:27;0.20;;;0.20;;
12884;SDS011;6510;51.362;7.370;2023-06-22T14:26:53;0.20;;;0.20;;
12884;SDS011;6510;51.362;7.370;2023-06-22T14:29:19;0.20;;;0.20;;
12884;SDS011;6510;51.362;7.370;2023-06-22T14:31:45;0.20;;;0.20;;
12884;SDS011;6510;51.362;7.370;2023-06-22T14:34:11;0.20;;;0.20;;
12884;SDS011;6510;51.362;7.370;2023-06-22T14:36:37;0.20;;;0.20;;
12884;SDS011;6510;51.362;7.370;2023-06-22T14:39:05;0.20;;;0.20;;
12884;SDS011;6510;51.362;7.370;2023-06-22T14:41:31;0.20;;;0.20;;
12884;SDS011;6510;51.362;7.370;2023-06-22T14:43:57;0.20;;;0.20;;
12884;SDS011;6510;51.362;7.370;2023-06-22T14:46:22;0.20;;;0.20;;
12884;SDS011;6510;51.362;7.370;2023-06-22T14:48:48;0.10;;;0.10;;
12884;SDS011;6510;51.362;7.370;2023-06-22T14:51:14;0.25;;;0.25;;
12884;SDS011;6510;51.362;7.370;2023-06-22T14:53:41;0.20;;;0.20;;
12884;SDS011;6510;51.362;7.370;2023-06-22T14:56:09;0.20;;;0.20;;
12884;SDS011;6510;51.362;7.370;2023-06-22T14:58:34;0.10;;;0.10;;
12884;SDS011;6510;51.362;7.370;2023-06-22T15:01:02;0.10;;;0.10;;
12884;SDS011;6510;51.362;7.370;2023-06-22T15:03:32;0.30;;;0.30;;
12884;SDS011;6510;51.362;7.370;2023-06-22T15:06:01;0.10;;;0.10;;